createdAt,value
2019-02-04T00:00:22.569Z,11.50
2019-02-04T00:01:22.724Z,11.90
2019-02-04T00:02:22.579Z,11.70
2019-02-04T00:03:22.418Z,11.50
2019-02-04T00:04:22.561Z,11.70
2019-02-04T00:05:22.634Z,11.30
2019-02-04T00:06:22.449Z,11.80
2019-02-04T00:07:22.422Z,11.50
2019-02-04T00:08:22.610Z,11.60
2019-02-04T00:09:22.602Z,11.90
2019-02-04T00:10:22.353Z,11.40
2019-02-04T00:11:22.368Z,11.10
2019-02-04T00:12:22.295Z,10.80
2019-02-04T00:13:22.509Z,11.50
2019-02-04T00:14:22.429Z,11.10
2019-02-04T00:15:22.367Z,11.40
2019-02-04T00:16:22.411Z,11.40
2019-02-04T00:17:22.418Z,11.30
2019-02-04T00:18:22.533Z,11.80
2019-02-04T00:19:22.350Z,10.90
2019-02-04T00:20:22.204Z,11.30
2019-02-04T00:21:22.336Z,11.90
2019-02-04T00:22:22.224Z,12.20
2019-02-04T00:23:22.284Z,10.70
2019-02-04T00:24:22.946Z,10.90
2019-02-04T00:25:22.187Z,11.10
2019-02-04T00:26:22.321Z,11.00
2019-02-04T00:27:22.340Z,11.10
2019-02-04T00:28:22.151Z,11.40
2019-02-04T00:29:22.248Z,11.10
2019-02-04T00:30:22.183Z,11.50
2019-02-04T00:31:22.112Z,10.90
2019-02-04T00:32:22.167Z,12.30
2019-02-04T00:33:22.109Z,11.50
2019-02-04T00:34:22.233Z,11.10
2019-02-04T00:35:22.070Z,11.50
2019-02-04T00:36:22.170Z,12.40
2019-02-04T00:37:22.220Z,11.70
2019-02-04T00:38:22.104Z,12.00
2019-02-04T00:39:22.233Z,12.00
2019-02-04T00:40:22.044Z,11.30
2019-02-04T00:41:22.086Z,11.90
2019-02-04T00:42:22.019Z,12.20
2019-02-04T00:43:22.047Z,11.10
2019-02-04T00:44:22.109Z,11.40
2019-02-04T00:45:21.992Z,11.90
2019-02-04T00:46:22.022Z,11.60
2019-02-04T00:47:21.990Z,11.80
2019-02-04T00:48:22.005Z,11.40
2019-02-04T00:49:22.032Z,11.10
2019-02-04T00:50:22.288Z,12.00
2019-02-04T00:51:21.886Z,11.40
2019-02-04T00:52:21.987Z,11.80
2019-02-04T00:53:22.007Z,11.80
2019-02-04T00:54:21.996Z,11.50
2019-02-04T00:55:22.207Z,11.80
2019-02-04T00:56:21.948Z,11.80
2019-02-04T00:57:21.803Z,11.60
2019-02-04T00:58:21.841Z,11.30
2019-02-04T00:59:21.753Z,11.80
2019-02-04T01:00:22.140Z,11.50
2019-02-04T01:01:21.859Z,11.80
2019-02-04T01:02:21.730Z,12.40
2019-02-04T01:03:21.726Z,11.60
2019-02-04T01:04:21.775Z,11.80
2019-02-04T01:05:21.861Z,11.60
2019-02-04T01:06:21.733Z,11.80
2019-02-04T01:07:21.796Z,11.60
2019-02-04T01:08:21.715Z,11.50
2019-02-04T01:09:21.701Z,11.10
2019-02-04T01:10:21.896Z,11.20
2019-02-04T01:11:21.743Z,11.90
2019-02-04T01:12:21.654Z,11.30
2019-02-04T01:13:21.698Z,11.40
2019-02-04T01:14:21.745Z,11.90
2019-02-04T01:15:21.716Z,11.80
2019-02-04T01:16:21.940Z,11.70
2019-02-04T01:17:21.659Z,11.70
2019-02-04T01:18:21.667Z,11.50
2019-02-04T01:19:21.648Z,11.20
2019-02-04T01:20:21.686Z,11.20
2019-02-04T01:21:21.671Z,11.40
2019-02-04T01:22:21.620Z,11.20
2019-02-04T01:23:21.718Z,11.60
2019-02-04T01:24:21.562Z,11.30
2019-02-04T01:25:21.571Z,11.50
2019-02-04T01:26:21.566Z,11.20
2019-02-04T01:27:21.639Z,10.90
2019-02-04T01:28:21.746Z,11.60
2019-02-04T01:29:21.567Z,11.60
2019-02-04T01:30:21.558Z,11.10
2019-02-04T01:31:21.640Z,10.70
2019-02-04T01:32:22.260Z,11.30
2019-02-04T01:33:21.494Z,10.90
2019-02-04T01:34:21.656Z,11.60
2019-02-04T01:35:21.648Z,11.00
2019-02-04T01:36:21.509Z,11.40
2019-02-04T01:37:21.448Z,10.70
2019-02-04T01:38:21.442Z,10.80
2019-02-04T01:39:21.503Z,11.00
2019-02-04T01:40:21.432Z,11.60
2019-02-04T01:41:21.408Z,13.00
2019-02-04T01:42:21.604Z,12.60
2019-02-04T01:43:21.315Z,12.60
2019-02-04T01:44:21.396Z,13.00
2019-02-04T01:45:21.347Z,12.80
2019-02-04T01:46:21.597Z,12.30
2019-02-04T01:47:21.397Z,12.40
2019-02-04T01:48:21.297Z,13.70
2019-02-04T01:49:21.420Z,12.60
2019-02-04T01:50:21.467Z,12.40
2019-02-04T01:51:21.329Z,12.40
2019-02-04T01:52:22.474Z,12.50
2019-02-04T01:53:21.297Z,12.60
2019-02-04T01:54:21.244Z,12.10
2019-02-04T01:55:21.267Z,11.50
2019-02-04T01:56:21.379Z,12.20
2019-02-04T01:57:21.530Z,11.90
2019-02-04T01:58:21.641Z,11.80
2019-02-04T01:59:21.378Z,12.50
2019-02-04T02:00:21.258Z,12.20
2019-02-04T02:01:21.134Z,11.60
2019-02-04T02:02:21.345Z,12.00
2019-02-04T02:03:21.169Z,12.20
2019-02-04T02:04:21.312Z,12.30
2019-02-04T02:05:21.163Z,11.60
2019-02-04T02:06:21.164Z,12.00
2019-02-04T02:07:21.151Z,11.50
2019-02-04T02:08:21.230Z,12.00
2019-02-04T02:09:21.122Z,12.00
2019-02-04T02:10:21.246Z,11.50
2019-02-04T02:11:21.122Z,11.60
2019-02-04T02:12:21.133Z,12.20
2019-02-04T02:13:22.913Z,11.60
2019-02-04T02:14:21.114Z,12.30
2019-02-04T02:15:21.050Z,11.80
2019-02-04T02:16:21.061Z,11.70
2019-02-04T02:17:26.616Z,11.90
2019-02-04T02:18:22.143Z,12.10
2019-02-04T02:19:20.979Z,12.00
2019-02-04T02:20:21.049Z,12.80
2019-02-04T02:21:21.192Z,12.20
2019-02-04T02:22:20.983Z,11.80
2019-02-04T02:23:21.054Z,11.50
2019-02-04T02:24:20.970Z,12.40
2019-02-04T02:25:20.950Z,12.20
2019-02-04T02:26:21.047Z,11.90
2019-02-04T02:27:20.876Z,11.50
2019-02-04T02:28:20.947Z,12.10
2019-02-04T02:29:20.895Z,12.90
2019-02-04T02:30:20.921Z,12.40
2019-02-04T02:31:21.095Z,12.40
2019-02-04T02:32:20.878Z,12.20
2019-02-04T02:33:21.001Z,12.40
2019-02-04T02:34:20.832Z,12.10
2019-02-04T02:35:20.823Z,12.30
2019-02-04T02:36:20.850Z,12.40
2019-02-04T02:37:20.808Z,11.60
2019-02-04T02:38:20.861Z,11.10
2019-02-04T02:39:20.792Z,11.50
2019-02-04T02:40:20.747Z,11.20
2019-02-04T02:41:20.768Z,11.80
2019-02-04T02:42:20.750Z,11.30
2019-02-04T02:43:20.926Z,11.80
2019-02-04T02:44:20.710Z,11.50
2019-02-04T02:45:20.721Z,11.90
2019-02-04T02:46:20.816Z,11.50
2019-02-04T02:47:20.710Z,11.80
2019-02-04T02:48:20.704Z,11.00
2019-02-04T02:49:20.902Z,11.90
2019-02-04T02:50:20.828Z,11.40
2019-02-04T02:51:20.812Z,11.60
2019-02-04T02:52:20.777Z,11.50
2019-02-04T02:53:20.576Z,11.30
2019-02-04T02:54:20.687Z,11.60
2019-02-04T02:55:20.693Z,11.50
2019-02-04T02:56:20.675Z,11.10
2019-02-04T02:57:20.589Z,11.40
2019-02-04T02:58:20.622Z,11.90
2019-02-04T02:59:20.699Z,11.00
2019-02-04T03:00:20.717Z,10.50
2019-02-04T03:01:20.590Z,11.50
2019-02-04T03:02:20.609Z,10.60
2019-02-04T03:03:20.627Z,11.20
2019-02-04T03:04:20.678Z,11.00
2019-02-04T03:05:20.547Z,11.40
2019-02-04T03:06:20.563Z,10.80
2019-02-04T03:07:20.452Z,11.10
2019-02-04T03:08:20.546Z,10.80
2019-02-04T03:09:20.479Z,10.90
2019-02-04T03:10:20.548Z,10.60
2019-02-04T03:11:20.566Z,11.30
2019-02-04T03:12:20.597Z,11.30
2019-02-04T03:13:20.517Z,10.90
2019-02-04T03:14:20.486Z,11.20
2019-02-04T03:15:20.448Z,11.10
2019-02-04T03:16:20.564Z,10.70
2019-02-04T03:17:20.559Z,10.60
2019-02-04T03:18:20.438Z,10.80
2019-02-04T03:19:20.376Z,10.70
2019-02-04T03:20:20.348Z,10.60
2019-02-04T03:21:20.438Z,10.30
2019-02-04T03:22:20.394Z,10.40
2019-02-04T03:23:20.374Z,9.60
2019-02-04T03:24:20.309Z,11.20
2019-02-04T03:25:20.404Z,10.30
2019-02-04T03:26:20.395Z,10.20
2019-02-04T03:27:20.308Z,10.50
2019-02-04T03:28:20.254Z,10.20
2019-02-04T03:29:20.237Z,10.50
2019-02-04T03:30:20.525Z,10.40
2019-02-04T03:31:20.263Z,11.10
2019-02-04T03:32:20.230Z,10.50
2019-02-04T03:33:20.277Z,10.20
2019-02-04T03:37:09.632Z,10.70
2019-02-04T03:38:09.536Z,10.70
2019-02-04T03:39:09.544Z,10.40
2019-02-04T03:40:09.599Z,9.90
2019-02-04T03:41:09.485Z,10.20
2019-02-04T03:42:09.472Z,10.10
2019-02-04T03:43:09.451Z,10.40
2019-02-04T03:44:09.482Z,9.90
2019-02-04T03:45:09.407Z,9.60
2019-02-04T03:46:09.465Z,9.70
2019-02-04T03:47:09.421Z,10.40
2019-02-04T03:48:09.678Z,10.50
2019-02-04T03:49:09.375Z,10.30
2019-02-04T03:50:09.408Z,10.10
2019-02-04T03:51:09.424Z,9.80
2019-02-04T03:52:09.339Z,10.20
2019-02-04T03:53:09.380Z,9.60
2019-02-04T03:54:09.360Z,10.30
2019-02-04T03:55:09.330Z,10.70
2019-02-04T03:56:09.334Z,9.80
2019-02-04T03:57:09.355Z,10.60
2019-02-04T03:58:09.332Z,10.30
2019-02-04T03:59:09.280Z,10.10
2019-02-04T04:00:09.255Z,10.60
2019-02-04T04:01:09.364Z,10.70
2019-02-04T04:02:09.301Z,10.50
2019-02-04T04:03:09.258Z,10.40
2019-02-04T04:04:09.300Z,10.40
2019-02-04T04:05:09.233Z,9.60
2019-02-04T04:06:09.260Z,10.10
2019-02-04T04:07:09.240Z,10.00
2019-02-04T04:08:09.166Z,10.20
2019-02-04T04:09:09.212Z,9.90
2019-02-04T04:10:09.189Z,10.40
2019-02-04T04:11:09.236Z,10.60
2019-02-04T04:12:09.169Z,10.00
2019-02-04T04:13:09.185Z,9.90
2019-02-04T04:14:09.163Z,10.00
2019-02-04T04:15:09.176Z,9.60
2019-02-04T04:16:09.097Z,10.00
2019-02-04T04:17:09.164Z,10.10
2019-02-04T04:18:15.916Z,10.00
2019-02-04T04:19:10.070Z,10.60
2019-02-04T04:20:09.082Z,11.70
2019-02-04T04:21:09.121Z,11.40
2019-02-04T04:22:09.110Z,10.70
2019-02-04T04:23:09.018Z,11.20
2019-02-04T04:24:09.067Z,10.50
2019-02-04T04:25:09.049Z,10.70
2019-02-04T04:26:09.038Z,10.80
2019-02-04T04:27:09.038Z,10.80
2019-02-04T04:28:08.973Z,10.80
2019-02-04T04:29:08.976Z,11.20
2019-02-04T04:30:08.949Z,10.80
2019-02-04T04:31:08.947Z,10.40
2019-02-04T04:32:08.956Z,9.70
2019-02-04T04:33:09.007Z,10.20
2019-02-04T04:34:08.930Z,10.60
2019-02-04T04:35:08.912Z,11.30
2019-02-04T04:36:08.906Z,10.00
2019-02-04T04:37:08.935Z,11.20
2019-02-04T04:38:08.906Z,10.90
2019-02-04T04:39:08.929Z,11.10
2019-02-04T04:40:08.847Z,10.90
2019-02-04T04:41:08.855Z,10.50
2019-02-04T04:42:08.884Z,10.20
2019-02-04T04:43:08.820Z,10.70
2019-02-04T04:44:08.832Z,10.20
2019-02-04T04:45:08.806Z,10.60
2019-02-04T04:46:08.863Z,11.20
2019-02-04T04:47:08.893Z,11.30
2019-02-04T04:48:08.775Z,10.90
2019-02-04T04:49:08.761Z,11.10
2019-02-04T04:50:08.773Z,10.90
2019-02-04T04:51:08.749Z,11.00
2019-02-04T04:52:08.725Z,11.10
2019-02-04T04:53:08.757Z,11.10
2019-02-04T04:54:08.716Z,11.10
2019-02-04T04:55:08.736Z,10.90
2019-02-04T04:56:08.727Z,12.10
2019-02-04T04:57:08.700Z,12.00
2019-02-04T04:58:08.694Z,11.90
2019-02-04T04:59:08.666Z,12.20
2019-02-04T05:00:08.634Z,12.00
2019-02-04T05:01:08.644Z,11.60
2019-02-04T05:02:08.652Z,11.70
2019-02-04T05:03:08.693Z,11.10
2019-02-04T05:04:08.711Z,12.00
2019-02-04T05:05:08.592Z,11.00
2019-02-04T05:06:08.607Z,11.50
2019-02-04T05:07:08.625Z,10.60
2019-02-04T05:08:08.591Z,10.90
2019-02-04T05:09:08.606Z,11.30
2019-02-04T05:10:08.529Z,10.70
2019-02-04T05:11:08.528Z,10.80
2019-02-04T05:12:08.528Z,11.30
2019-02-04T05:13:08.562Z,11.80
2019-02-04T05:14:08.493Z,11.50
2019-02-04T05:15:08.485Z,11.20
2019-02-04T05:16:08.483Z,11.40
2019-02-04T05:17:08.457Z,11.90
2019-02-04T05:18:08.478Z,11.30
2019-02-04T05:19:08.456Z,11.40
2019-02-04T05:20:08.475Z,11.00
2019-02-04T05:21:08.458Z,11.30
2019-02-04T05:22:08.425Z,11.70
2019-02-04T05:23:08.404Z,11.20
2019-02-04T05:24:08.420Z,11.50
2019-02-04T05:25:08.383Z,11.60
2019-02-04T05:26:08.389Z,11.80
2019-02-04T05:27:08.356Z,12.00
2019-02-04T05:28:08.365Z,12.30
2019-02-04T05:29:08.357Z,12.30
2019-02-04T05:30:08.349Z,12.10
2019-02-04T05:31:08.318Z,11.70
2019-02-04T05:32:08.310Z,11.80
2019-02-04T05:33:08.336Z,12.00
2019-02-04T05:34:08.355Z,11.80
2019-02-04T05:35:08.296Z,12.10
2019-02-04T05:36:08.320Z,12.30
2019-02-04T05:37:08.260Z,11.80
2019-02-04T05:38:08.261Z,11.80
2019-02-04T05:39:08.282Z,11.50
2019-02-04T05:40:08.226Z,11.50
2019-02-04T05:41:08.233Z,11.50
2019-02-04T05:42:08.218Z,11.70
2019-02-04T05:43:08.243Z,11.70
2019-02-04T05:44:08.329Z,12.10
2019-02-04T05:45:08.188Z,12.20
2019-02-04T05:46:08.182Z,12.40
2019-02-04T05:47:08.197Z,11.60
2019-02-04T05:48:08.162Z,11.30
2019-02-04T05:49:08.238Z,11.60
2019-02-04T05:50:08.149Z,11.10
2019-02-04T05:51:08.119Z,12.00
2019-02-04T05:52:08.120Z,11.50
2019-02-04T05:53:08.108Z,11.00
2019-02-04T05:54:08.076Z,11.60
2019-02-04T05:55:08.138Z,11.30
2019-02-04T05:56:08.065Z,10.90
2019-02-04T05:57:08.068Z,10.60
2019-02-04T05:58:08.051Z,10.90
2019-02-04T05:59:08.045Z,12.20
2019-02-04T06:00:08.053Z,11.50
2019-02-04T06:01:08.015Z,12.00
2019-02-04T06:02:09.511Z,12.20
2019-02-04T06:03:08.024Z,12.10
2019-02-04T06:04:07.981Z,12.20
2019-02-04T06:05:08.113Z,13.30
2019-02-04T06:06:08.020Z,12.80
2019-02-04T06:07:07.961Z,13.00
2019-02-04T06:08:07.994Z,13.20
2019-02-04T06:09:07.987Z,12.00
2019-02-04T06:10:07.946Z,12.00
2019-02-04T06:11:07.926Z,12.20
2019-02-04T06:12:07.925Z,12.10
2019-02-04T06:13:07.902Z,11.80
2019-02-04T06:14:07.902Z,11.70
2019-02-04T06:15:07.942Z,12.40
2019-02-04T06:16:07.861Z,10.80
2019-02-04T06:17:07.925Z,11.40
2019-02-04T06:18:07.834Z,11.60
2019-02-04T06:19:07.829Z,10.70
2019-02-04T06:20:07.837Z,11.70
2019-02-04T06:21:07.845Z,10.90
2019-02-04T06:22:07.818Z,10.70
2019-02-04T06:23:07.787Z,11.30
2019-02-04T06:24:07.853Z,11.10
2019-02-04T06:25:07.813Z,10.90
2019-02-04T06:26:07.809Z,11.10
2019-02-04T06:27:10.234Z,11.90
2019-02-04T06:28:07.734Z,10.70
2019-02-04T06:29:07.728Z,10.80
2019-02-04T06:30:07.740Z,11.40
2019-02-04T06:31:07.736Z,11.10
2019-02-04T06:32:07.703Z,11.20
2019-02-04T06:33:07.683Z,11.70
2019-02-04T06:34:07.694Z,11.20
2019-02-04T06:35:07.660Z,10.80
2019-02-04T06:36:07.677Z,11.70
2019-02-04T06:37:07.646Z,11.70
2019-02-04T06:38:07.638Z,11.90
2019-02-04T06:39:07.617Z,11.70
2019-02-04T06:40:07.613Z,11.30
2019-02-04T06:41:07.619Z,11.90
2019-02-04T06:42:07.590Z,11.50
2019-02-04T06:43:07.574Z,12.40
2019-02-04T06:44:07.570Z,11.60
2019-02-04T06:45:07.555Z,11.80
2019-02-04T06:46:07.568Z,12.00
2019-02-04T06:47:07.537Z,11.70
2019-02-04T06:48:07.538Z,11.60
2019-02-04T06:49:12.560Z,11.10
2019-02-04T06:50:08.519Z,12.00
2019-02-04T06:51:07.513Z,11.80
2019-02-04T06:52:07.491Z,11.00
2019-02-04T06:53:07.543Z,11.70
2019-02-04T06:54:07.463Z,11.50
2019-02-04T06:55:07.461Z,11.10
2019-02-04T06:56:07.488Z,11.00
2019-02-04T06:57:07.450Z,11.40
2019-02-04T06:58:07.426Z,11.20
2019-02-04T06:59:07.417Z,11.40
2019-02-04T07:00:07.398Z,11.20
2019-02-04T07:01:07.420Z,11.70
2019-02-04T07:02:07.404Z,11.90
2019-02-04T07:03:07.379Z,11.50
2019-02-04T07:04:07.364Z,11.50
2019-02-04T07:05:07.372Z,11.50
2019-02-04T07:06:07.345Z,11.30
2019-02-04T07:07:07.350Z,11.90
2019-02-04T07:08:07.337Z,11.10
2019-02-04T07:09:07.310Z,12.10
2019-02-04T07:10:07.305Z,12.00
2019-02-04T07:11:07.295Z,11.30
2019-02-04T07:12:07.337Z,11.90
2019-02-04T07:13:07.273Z,12.10
2019-02-04T07:14:07.258Z,12.00
2019-02-04T07:15:07.270Z,13.00
2019-02-04T07:16:07.243Z,13.40
2019-02-04T07:17:07.289Z,13.40
2019-02-04T07:18:07.225Z,13.40
2019-02-04T07:19:07.220Z,13.00
2019-02-04T07:20:07.208Z,13.70
2019-02-04T07:21:07.195Z,13.10
2019-02-04T07:22:07.198Z,14.10
2019-02-04T07:23:07.170Z,14.80
2019-02-04T07:24:07.162Z,15.20
2019-02-04T07:25:07.214Z,13.50
2019-02-04T07:26:07.137Z,12.10
2019-02-04T07:27:07.167Z,12.50
2019-02-04T07:28:07.175Z,13.10
2019-02-04T07:29:07.127Z,12.30
2019-02-04T07:30:07.098Z,12.10
2019-02-04T07:31:07.089Z,12.40
2019-02-04T07:32:07.087Z,12.50
2019-02-04T07:33:07.104Z,12.40
2019-02-04T07:34:07.046Z,12.60
2019-02-04T07:35:07.045Z,12.10
2019-02-04T07:36:07.055Z,12.00
2019-02-04T07:37:07.045Z,11.80
2019-02-04T07:38:07.031Z,11.50
2019-02-04T07:39:07.010Z,12.60
2019-02-04T07:40:07.000Z,12.50
2019-02-04T07:41:07.002Z,11.70
2019-02-04T07:42:06.996Z,12.10
2019-02-04T07:43:06.986Z,12.30
2019-02-04T07:44:06.951Z,13.20
2019-02-04T07:45:06.945Z,13.00
2019-02-04T07:46:06.938Z,13.10
2019-02-04T07:47:06.920Z,12.80
2019-02-04T07:48:06.936Z,13.10
2019-02-04T07:49:06.918Z,12.70
2019-02-04T07:50:06.893Z,11.80
2019-02-04T07:51:06.883Z,12.70
2019-02-04T07:52:06.867Z,12.30
2019-02-04T07:53:06.890Z,12.80
2019-02-04T07:54:06.848Z,12.30
2019-02-04T07:55:06.918Z,12.20
2019-02-04T07:56:06.852Z,12.50
2019-02-04T07:57:06.847Z,12.70
2019-02-04T07:58:06.836Z,12.90
2019-02-04T07:59:06.796Z,12.10
2019-02-04T08:00:06.788Z,12.70
2019-02-04T08:01:14.402Z,12.60
2019-02-04T08:02:06.817Z,12.60
2019-02-04T08:03:06.776Z,13.40
2019-02-04T08:04:06.779Z,13.50
2019-02-04T08:05:06.735Z,12.40
2019-02-04T08:06:06.775Z,13.30
2019-02-04T08:07:06.731Z,13.80
2019-02-04T08:08:06.747Z,12.80
2019-02-04T08:09:06.740Z,12.60
2019-02-04T08:10:06.703Z,12.30
2019-02-04T08:11:06.682Z,12.30
2019-02-04T08:12:06.668Z,13.10
2019-02-04T08:13:06.690Z,12.50
2019-02-04T08:14:06.695Z,12.40
2019-02-04T08:15:06.652Z,13.10
2019-02-04T08:16:06.698Z,12.10
2019-02-04T08:17:06.610Z,12.90
2019-02-04T08:18:06.610Z,12.80
2019-02-04T08:19:06.602Z,12.10
2019-02-04T08:20:06.611Z,12.50
2019-02-04T08:21:06.573Z,12.50
2019-02-04T08:22:06.575Z,12.70
2019-02-04T08:23:06.551Z,12.70
2019-02-04T08:24:06.548Z,12.80
2019-02-04T08:25:06.560Z,12.70
2019-02-04T08:26:06.529Z,13.30
2019-02-04T08:27:06.518Z,12.40
2019-02-04T08:28:06.527Z,12.00
2019-02-04T08:29:06.496Z,12.90
2019-02-04T08:30:06.517Z,13.00
2019-02-04T08:31:06.477Z,13.10
2019-02-04T08:32:06.469Z,12.50
2019-02-04T08:33:06.452Z,12.60
2019-02-04T08:34:06.446Z,12.00
2019-02-04T08:35:06.450Z,12.20
2019-02-04T08:36:06.419Z,12.60
2019-02-04T08:37:06.410Z,12.40
2019-02-04T08:38:06.412Z,12.30
2019-02-04T08:39:06.393Z,12.90
2019-02-04T08:40:06.378Z,13.40
2019-02-04T08:41:06.396Z,12.70
2019-02-04T08:42:06.378Z,12.40
2019-02-04T08:43:06.348Z,13.10
2019-02-04T08:44:06.342Z,12.60
2019-02-04T08:45:06.328Z,13.00
2019-02-04T08:46:06.340Z,12.60
2019-02-04T08:47:06.306Z,12.20
2019-02-04T08:48:06.298Z,12.00
2019-02-04T08:49:06.286Z,12.20
2019-02-04T08:50:06.282Z,13.10
2019-02-04T08:51:06.286Z,13.00
2019-02-04T08:52:06.310Z,12.10
2019-02-04T08:53:06.249Z,13.30
2019-02-04T08:54:06.235Z,13.30
2019-02-04T08:55:06.225Z,12.80
2019-02-04T08:56:06.236Z,12.50
2019-02-04T08:57:06.249Z,13.20
2019-02-04T08:58:06.229Z,13.30
2019-02-04T08:59:06.192Z,13.30
2019-02-04T09:00:06.184Z,13.20
2019-02-04T09:01:06.189Z,13.10
2019-02-04T09:02:06.182Z,12.70
2019-02-04T09:03:06.144Z,13.20
2019-02-04T09:04:06.263Z,13.20
2019-02-04T09:05:06.123Z,12.80
2019-02-04T09:06:06.149Z,12.60
2019-02-04T09:07:06.125Z,12.80
2019-02-04T09:08:06.111Z,13.00
2019-02-04T09:09:06.080Z,13.00
2019-02-04T09:10:06.086Z,13.20
2019-02-04T09:11:06.089Z,13.00
2019-02-04T09:12:06.068Z,12.40
2019-02-04T09:13:06.054Z,12.50
2019-02-04T09:14:06.056Z,13.00
2019-02-04T09:15:06.051Z,12.10
2019-02-04T09:16:06.033Z,13.20
2019-02-04T09:17:06.036Z,12.30
2019-02-04T09:18:06.004Z,12.70
2019-02-04T09:19:05.997Z,12.30
2019-02-04T09:20:10.104Z,13.10
2019-02-04T09:21:05.961Z,12.20
2019-02-04T09:22:05.980Z,12.50
2019-02-04T09:23:06.631Z,13.00
2019-02-04T09:24:05.934Z,12.20
2019-02-04T09:25:05.926Z,12.40
2019-02-04T09:26:05.914Z,12.00
2019-02-04T09:27:05.982Z,12.50
2019-02-04T09:28:05.895Z,12.60
2019-02-04T09:29:05.973Z,11.90
2019-02-04T09:30:05.878Z,11.70
2019-02-04T09:31:05.872Z,12.30
2019-02-04T09:32:05.842Z,12.90
2019-02-04T09:33:05.898Z,11.70
2019-02-04T09:34:05.835Z,12.20
2019-02-04T09:35:05.816Z,12.30
2019-02-04T09:36:05.847Z,12.60
2019-02-04T09:37:05.819Z,11.70
2019-02-04T09:38:05.829Z,12.50
2019-02-04T09:39:05.777Z,12.60
2019-02-04T09:40:05.816Z,13.00
2019-02-04T09:41:05.772Z,11.60
2019-02-04T09:42:05.792Z,12.40
2019-02-04T09:43:05.785Z,12.60
2019-02-04T09:44:05.760Z,12.30
2019-02-04T09:45:05.726Z,12.60
2019-02-04T09:46:05.722Z,12.30
2019-02-04T09:47:05.693Z,12.50
2019-02-04T09:48:05.700Z,11.90
2019-02-04T09:49:05.703Z,11.90
2019-02-04T09:50:05.733Z,11.90
2019-02-04T09:51:05.660Z,11.90
2019-02-04T09:52:05.674Z,11.90
2019-02-04T09:53:05.682Z,11.50
2019-02-04T09:54:05.677Z,12.10
2019-02-04T09:55:05.612Z,11.60
2019-02-04T09:56:05.654Z,13.00
2019-02-04T09:57:05.599Z,12.40
2019-02-04T09:58:05.625Z,12.40
2019-02-04T09:59:05.597Z,11.80
2019-02-04T10:00:05.573Z,11.30
2019-02-04T10:01:05.551Z,11.80
2019-02-04T10:02:05.558Z,11.20
2019-02-04T10:03:05.564Z,11.00
2019-02-04T10:04:05.605Z,11.30
2019-02-04T10:05:05.538Z,12.10
2019-02-04T10:06:05.515Z,11.50
2019-02-04T10:07:05.552Z,11.20
2019-02-04T10:08:05.568Z,12.00
2019-02-04T10:09:05.538Z,11.00
2019-02-04T10:10:05.511Z,11.70
2019-02-04T10:11:05.446Z,11.00
2019-02-04T10:12:05.448Z,11.30
2019-02-04T10:13:05.466Z,11.50
2019-02-04T10:14:05.441Z,11.50
2019-02-04T10:15:05.441Z,11.10
2019-02-04T10:16:05.485Z,11.50
2019-02-04T10:17:05.432Z,10.90
2019-02-04T10:18:05.479Z,11.10
2019-02-04T10:19:05.445Z,11.20
2019-02-04T10:20:05.350Z,11.50
2019-02-04T10:21:05.376Z,10.80
2019-02-04T10:22:05.329Z,11.10
2019-02-04T10:23:05.359Z,10.90
2019-02-04T10:24:05.349Z,11.90
2019-02-04T10:25:05.313Z,11.80
2019-02-04T10:26:05.310Z,11.20
2019-02-04T10:27:05.314Z,11.10
2019-02-04T10:28:05.272Z,10.50
2019-02-04T10:29:05.282Z,10.90
2019-02-04T10:30:05.285Z,10.00
2019-02-04T10:31:05.267Z,10.50
2019-02-04T10:32:05.249Z,10.20
2019-02-04T10:33:05.226Z,10.70
2019-02-04T10:34:05.202Z,10.70
2019-02-04T10:35:16.374Z,10.60
2019-02-04T10:36:06.183Z,10.00
2019-02-04T10:37:05.216Z,10.40
2019-02-04T10:38:05.171Z,10.30
2019-02-04T10:39:05.187Z,10.50
2019-02-04T10:40:05.159Z,9.40
2019-02-04T10:41:05.223Z,9.90
2019-02-04T10:42:05.125Z,10.00
2019-02-04T10:43:05.151Z,10.10
2019-02-04T10:44:05.236Z,9.90
2019-02-04T10:45:05.148Z,10.50
2019-02-04T10:46:05.302Z,10.00
2019-02-04T10:47:05.073Z,9.70
2019-02-04T10:48:05.147Z,10.40
2019-02-04T10:49:05.054Z,10.00
2019-02-04T10:50:05.040Z,10.50
2019-02-04T10:51:05.051Z,9.70
2019-02-04T10:52:05.013Z,9.90
2019-02-04T10:53:05.003Z,10.70
2019-02-04T10:54:05.049Z,10.30
2019-02-04T10:55:05.131Z,10.50
2019-02-04T10:56:05.018Z,10.10
2019-02-04T10:57:04.966Z,9.90
2019-02-04T10:58:04.997Z,10.50
2019-02-04T10:59:04.944Z,10.30
2019-02-04T11:00:04.950Z,10.20
2019-02-04T11:01:04.972Z,10.10
2019-02-04T11:02:04.930Z,10.30
2019-02-04T11:03:04.959Z,10.40
2019-02-04T11:04:04.914Z,10.30
2019-02-04T11:05:04.959Z,9.80
2019-02-04T11:06:04.949Z,10.20
2019-02-04T11:07:04.940Z,9.60
2019-02-04T11:08:04.947Z,9.70
2019-02-04T11:09:04.863Z,10.50
2019-02-04T11:10:04.841Z,9.50
2019-02-04T11:11:04.851Z,10.20
2019-02-04T11:12:05.865Z,9.90
2019-02-04T11:13:04.953Z,9.00
2019-02-04T11:14:04.804Z,9.50
2019-02-04T11:15:04.834Z,8.90
2019-02-04T11:16:04.867Z,8.80
2019-02-04T11:17:04.938Z,8.80
2019-02-04T11:18:04.742Z,9.10
2019-02-04T11:19:04.977Z,8.90
2019-02-04T11:20:04.735Z,8.40
2019-02-04T11:21:04.719Z,8.30
2019-02-04T11:22:04.754Z,8.30
2019-02-04T11:23:14.582Z,8.90
2019-02-04T11:24:05.615Z,8.10
2019-02-04T11:25:04.888Z,8.50
2019-02-04T11:26:04.698Z,8.10
2019-02-04T11:27:04.872Z,8.80
2019-02-04T11:28:04.829Z,7.80
2019-02-04T11:29:04.661Z,8.00
2019-02-04T11:30:04.682Z,8.60
2019-02-04T11:31:04.725Z,8.60
2019-02-04T11:32:04.674Z,8.20
2019-02-04T11:33:04.623Z,7.60
2019-02-04T11:34:04.630Z,6.90
2019-02-04T11:35:04.652Z,6.50
2019-02-04T11:36:04.575Z,6.50
2019-02-04T11:37:04.598Z,6.70
2019-02-04T11:38:04.594Z,7.20
2019-02-04T11:39:04.559Z,6.30
2019-02-04T11:40:04.560Z,6.70
2019-02-04T11:41:04.588Z,6.30
2019-02-04T11:42:04.599Z,7.00
2019-02-04T11:43:04.556Z,6.20
2019-02-04T11:44:04.559Z,6.30
2019-02-04T11:45:04.532Z,5.50
2019-02-04T11:46:04.518Z,5.40
2019-02-04T11:47:04.489Z,5.10
2019-02-04T11:48:04.459Z,5.50
2019-02-04T11:49:04.464Z,5.50
2019-02-04T11:50:04.448Z,5.20
2019-02-04T11:51:09.806Z,5.30
2019-02-04T11:52:05.423Z,4.90
2019-02-04T11:53:04.467Z,4.90
2019-02-04T11:54:04.466Z,4.70
2019-02-04T11:55:04.403Z,4.80
2019-02-04T11:56:04.387Z,5.00
2019-02-04T11:57:04.367Z,4.60
2019-02-04T11:58:07.586Z,4.60
2019-02-04T11:59:04.382Z,4.30
2019-02-04T12:00:04.354Z,4.50
2019-02-04T12:01:04.328Z,4.60
2019-02-04T12:02:04.329Z,4.30
2019-02-04T12:03:04.310Z,4.40
2019-02-04T12:04:04.331Z,4.10
2019-02-04T12:05:04.323Z,4.30
2019-02-04T12:06:04.269Z,3.80
2019-02-04T12:07:04.295Z,4.10
2019-02-04T12:08:04.263Z,3.90
2019-02-04T12:09:04.559Z,4.30
2019-02-04T12:10:04.279Z,4.10
2019-02-04T12:11:04.225Z,3.80
2019-02-04T12:12:04.225Z,4.00
2019-02-04T12:13:04.209Z,3.90
2019-02-04T12:14:04.225Z,3.60
2019-02-04T12:15:04.203Z,3.30
2019-02-04T12:16:04.174Z,3.40
2019-02-04T12:17:04.160Z,3.30
2019-02-04T12:18:04.156Z,3.10
2019-02-04T12:19:04.253Z,3.20
2019-02-04T12:20:04.142Z,3.30
2019-02-04T12:21:04.155Z,3.40
2019-02-04T12:22:04.130Z,2.80
2019-02-04T12:23:04.111Z,2.80
2019-02-04T12:24:04.112Z,3.00
2019-02-04T12:25:04.074Z,2.60
2019-02-04T12:26:04.064Z,3.00
2019-02-04T12:27:04.087Z,2.90
2019-02-04T12:28:04.036Z,3.00
2019-02-04T12:29:04.071Z,3.20
2019-02-04T12:30:04.050Z,2.90
2019-02-04T12:31:04.033Z,2.70
2019-02-04T12:32:04.004Z,2.60
2019-02-04T12:33:04.002Z,2.90
2019-02-04T12:34:04.026Z,2.80
2019-02-04T12:35:03.997Z,2.90
2019-02-04T12:36:04.020Z,2.80
2019-02-04T12:37:04.027Z,3.00
2019-02-04T12:38:03.958Z,2.60
2019-02-04T12:39:03.974Z,2.60
2019-02-04T12:40:03.958Z,2.80
2019-02-04T12:41:03.918Z,3.20
2019-02-04T12:42:04.000Z,3.00
2019-02-04T12:43:03.888Z,2.90
2019-02-04T12:44:03.878Z,2.80
2019-02-04T12:45:03.913Z,2.60
2019-02-04T12:46:03.865Z,2.80
2019-02-04T12:47:03.865Z,2.70
2019-02-04T12:48:03.894Z,2.80
2019-02-04T12:49:03.867Z,2.70
2019-02-04T12:50:03.850Z,2.80
2019-02-04T12:51:03.880Z,3.10
2019-02-04T12:52:03.829Z,2.80
2019-02-04T12:53:03.790Z,2.70
2019-02-04T12:54:03.792Z,2.80
2019-02-04T12:55:03.816Z,2.80
2019-02-04T12:56:03.792Z,2.90
2019-02-04T12:57:03.798Z,2.90
2019-02-04T12:58:03.740Z,3.00
2019-02-04T12:59:03.726Z,2.90